sensor_id;sensor_type;location;lat;lon;timestamp;P1;durP1;ratioP1;P2;durP2;ratioP2
17488;SDS011;8861;52.644;4.734;2022-10-17T00:00:43;5.97;;;4.40;;
17488;SDS011;8861;52.644;4.734;2022-10-17T00:03:10;4.47;;;4.07;;
17488;SDS011;8861;52.644;4.734;2022-10-17T00:05:40;5.20;;;4.53;;
17488;SDS011;8861;52.644;4.734;2022-10-17T00:08:09;5.70;;;5.03;;
17488;SDS011;8861;52.644;4.734;2022-10-17T00:10:38;6.03;;;5.10;;
17488;SDS011;8861;52.644;4.734;2022-10-17T00:13:06;5.47;;;4.97;;
17488;SDS011;8861;52.644;4.734;2022-10-17T00:15:34;5.77;;;4.70;;
17488;SDS011;8861;52.644;4.734;2022-10-17T00:18:01;5.00;;;4.50;;
17488;SDS011;8861;52.644;4.734;2022-10-17T00:20:28;5.30;;;4.60;;
17488;SDS011;8861;52.644;4.734;2022-10-17T00:22:56;5.90;;;5.00;;
17488;SDS011;8861;52.644;4.734;2022-10-17T00:25:24;5.30;;;4.80;;
17488;SDS011;8861;52.644;4.734;2022-10-17T00:27:52;4.80;;;4.40;;
17488;SDS011;8861;52.644;4.734;2022-10-17T00:30:19;5.43;;;4.87;;
17488;SDS011;8861;52.644;4.734;2022-10-17T00:32:46;5.43;;;4.50;;
17488;SDS011;8861;52.644;4.734;2022-10-17T00:35:13;6.23;;;5.00;;
17488;SDS011;8861;52.644;4.734;2022-10-17T00:37:40;5.77;;;5.23;;
17488;SDS011;8861;52.644;4.734;2022-10-17T00:40:07;5.33;;;4.83;;
17488;SDS011;8861;52.644;4.734;2022-10-17T00:42:35;4.97;;;4.57;;
17488;SDS011;8861;52.644;4.734;2022-10-17T00:45:06;6.03;;;5.33;;
17488;SDS011;8861;52.644;4.734;2022-10-17T00:47:42;6.10;;;5.27;;
17488;SDS011;8861;52.644;4.734;2022-10-17T00:50:11;7.60;;;6.33;;
17488;SDS011;8861;52.644;4.734;2022-10-17T00:52:39;6.60;;;5.83;;
17488;SDS011;8861;52.644;4.734;2022-10-17T00:55:08;6.50;;;5.90;;
17488;SDS011;8861;52.644;4.734;2022-10-17T00:57:38;7.10;;;6.40;;
17488;SDS011;8861;52.644;4.734;2022-10-17T01:00:08;8.37;;;6.70;;
17488;SDS011;8861;52.644;4.734;2022-10-17T01:02:37;9.17;;;6.93;;
17488;SDS011;8861;52.644;4.734;2022-10-17T01:05:04;6.83;;;6.13;;
17488;SDS011;8861;52.644;4.734;2022-10-17T01:07:32;6.50;;;5.60;;
17488;SDS011;8861;52.644;4.734;2022-10-17T01:10:03;9.03;;;7.60;;
17488;SDS011;8861;52.644;4.734;2022-10-17T01:12:32;8.27;;;6.83;;
17488;SDS011;8861;52.644;4.734;2022-10-17T01:15:09;8.50;;;6.77;;
17488;SDS011;8861;52.644;4.734;2022-10-17T01:17:45;8.47;;;6.90;;
17488;SDS011;8861;52.644;4.734;2022-10-17T01:23:40;8.67;;;7.77;;
17488;SDS011;8861;52.644;4.734;2022-10-17T01:26:22;10.07;;;8.60;;
17488;SDS011;8861;52.644;4.734;2022-10-17T01:29:01;10.00;;;8.20;;
17488;SDS011;8861;52.644;4.734;2022-10-17T01:31:47;13.57;;;9.60;;
17488;SDS011;8861;52.644;4.734;2022-10-17T01:34:21;10.77;;;8.60;;
17488;SDS011;8861;52.644;4.734;2022-10-17T01:36:57;9.77;;;8.43;;
17488;SDS011;8861;52.644;4.734;2022-10-17T01:39:31;11.40;;;8.20;;
17488;SDS011;8861;52.644;4.734;2022-10-17T01:42:06;11.90;;;9.77;;
17488;SDS011;8861;52.644;4.734;2022-10-17T01:44:41;12.50;;;8.50;;
17488;SDS011;8861;52.644;4.734;2022-10-17T01:47:16;9.73;;;8.40;;
17488;SDS011;8861;52.644;4.734;2022-10-17T01:49:45;11.20;;;9.27;;
17488;SDS011;8861;52.644;4.734;2022-10-17T01:52:17;11.57;;;10.20;;
17488;SDS011;8861;52.644;4.734;2022-10-17T01:54:48;12.37;;;10.23;;
17488;SDS011;8861;52.644;4.734;2022-10-17T01:57:18;15.90;;;10.33;;
17488;SDS011;8861;52.644;4.734;2022-10-17T01:59:50;11.80;;;9.90;;
17488;SDS011;8861;52.644;4.734;2022-10-17T02:02:19;14.33;;;10.23;;
17488;SDS011;8861;52.644;4.734;2022-10-17T02:04:47;11.50;;;9.37;;
17488;SDS011;8861;52.644;4.734;2022-10-17T02:07:17;10.13;;;9.10;;
17488;SDS011;8861;52.644;4.734;2022-10-17T02:09:43;9.60;;;8.60;;
17488;SDS011;8861;52.644;4.734;2022-10-17T02:12:14;9.10;;;8.20;;
17488;SDS011;8861;52.644;4.734;2022-10-17T02:14:56;8.63;;;7.73;;
17488;SDS011;8861;52.644;4.734;2022-10-17T02:17:37;12.07;;;9.73;;
17488;SDS011;8861;52.644;4.734;2022-10-17T02:20:16;12.47;;;10.40;;
17488;SDS011;8861;52.644;4.734;2022-10-17T02:22:50;16.73;;;11.70;;
17488;SDS011;8861;52.644;4.734;2022-10-17T02:25:22;11.80;;;10.10;;
17488;SDS011;8861;52.644;4.734;2022-10-17T02:28:01;11.70;;;9.63;;
17488;SDS011;8861;52.644;4.734;2022-10-17T02:30:36;11.33;;;9.40;;
17488;SDS011;8861;52.644;4.734;2022-10-17T02:33:09;11.60;;;9.20;;
17488;SDS011;8861;52.644;4.734;2022-10-17T02:35:39;11.57;;;9.57;;
17488;SDS011;8861;52.644;4.734;2022-10-17T02:38:09;11.23;;;10.00;;
17488;SDS011;8861;52.644;4.734;2022-10-17T02:40:37;10.03;;;9.03;;
17488;SDS011;8861;52.644;4.734;2022-10-17T02:43:05;13.87;;;9.80;;
17488;SDS011;8861;52.644;4.734;2022-10-17T02:45:33;12.63;;;10.73;;
17488;SDS011;8861;52.644;4.734;2022-10-17T02:48:03;14.47;;;11.40;;
17488;SDS011;8861;52.644;4.734;2022-10-17T02:50:37;13.50;;;10.53;;
17488;SDS011;8861;52.644;4.734;2022-10-17T02:53:13;12.50;;;10.50;;
17488;SDS011;8861;52.644;4.734;2022-10-17T02:55:46;11.47;;;9.97;;
17488;SDS011;8861;52.644;4.734;2022-10-17T02:58:18;10.93;;;9.57;;
17488;SDS011;8861;52.644;4.734;2022-10-17T03:00:49;11.20;;;9.50;;
17488;SDS011;8861;52.644;4.734;2022-10-17T03:03:18;12.27;;;9.87;;
17488;SDS011;8861;52.644;4.734;2022-10-17T03:05:47;13.33;;;10.80;;
17488;SDS011;8861;52.644;4.734;2022-10-17T03:08:14;13.93;;;11.57;;
17488;SDS011;8861;52.644;4.734;2022-10-17T03:10:41;15.03;;;12.27;;
17488;SDS011;8861;52.644;4.734;2022-10-17T03:13:08;20.47;;;14.33;;
17488;SDS011;8861;52.644;4.734;2022-10-17T03:15:35;18.27;;;14.07;;
17488;SDS011;8861;52.644;4.734;2022-10-17T03:18:02;16.73;;;13.23;;
17488;SDS011;8861;52.644;4.734;2022-10-17T03:20:29;17.47;;;12.83;;
17488;SDS011;8861;52.644;4.734;2022-10-17T03:23:00;16.47;;;13.53;;
17488;SDS011;8861;52.644;4.734;2022-10-17T03:25:27;13.87;;;11.50;;
17488;SDS011;8861;52.644;4.734;2022-10-17T03:27:56;13.63;;;11.07;;
17488;SDS011;8861;52.644;4.734;2022-10-17T03:30:24;12.97;;;10.87;;
17488;SDS011;8861;52.644;4.734;2022-10-17T03:32:50;12.53;;;10.47;;
17488;SDS011;8861;52.644;4.734;2022-10-17T03:35:17;11.90;;;10.13;;
17488;SDS011;8861;52.644;4.734;2022-10-17T03:37:44;11.93;;;10.03;;
17488;SDS011;8861;52.644;4.734;2022-10-17T03:40:13;11.17;;;9.33;;
17488;SDS011;8861;52.644;4.734;2022-10-17T03:42:39;13.40;;;9.70;;
17488;SDS011;8861;52.644;4.734;2022-10-17T03:45:07;12.47;;;10.30;;
17488;SDS011;8861;52.644;4.734;2022-10-17T03:47:34;11.87;;;9.90;;
17488;SDS011;8861;52.644;4.734;2022-10-17T03:50:01;12.73;;;10.20;;
17488;SDS011;8861;52.644;4.734;2022-10-17T03:52:28;14.37;;;11.00;;
17488;SDS011;8861;52.644;4.734;2022-10-17T03:54:55;13.87;;;11.47;;
17488;SDS011;8861;52.644;4.734;2022-10-17T03:57:23;14.73;;;10.80;;
17488;SDS011;8861;52.644;4.734;2022-10-17T03:59:50;13.77;;;11.40;;
17488;SDS011;8861;52.644;4.734;2022-10-17T04:02:17;12.60;;;10.00;;
17488;SDS011;8861;52.644;4.734;2022-10-17T04:04:44;13.07;;;10.77;;
17488;SDS011;8861;52.644;4.734;2022-10-17T04:07:10;11.30;;;9.80;;
17488;SDS011;8861;52.644;4.734;2022-10-17T04:09:37;14.30;;;11.27;;
17488;SDS011;8861;52.644;4.734;2022-10-17T04:12:04;14.27;;;11.93;;
17488;SDS011;8861;52.644;4.734;2022-10-17T04:14:33;15.47;;;12.30;;
17488;SDS011;8861;52.644;4.734;2022-10-17T04:16:59;15.13;;;11.90;;
17488;SDS011;8861;52.644;4.734;2022-10-17T04:19:26;15.43;;;11.60;;
17488;SDS011;8861;52.644;4.734;2022-10-17T04:21:53;16.33;;;12.93;;
17488;SDS011;8861;52.644;4.734;2022-10-17T04:24:20;14.37;;;11.33;;
17488;SDS011;8861;52.644;4.734;2022-10-17T04:26:48;13.67;;;11.27;;
17488;SDS011;8861;52.644;4.734;2022-10-17T04:29:16;17.93;;;13.37;;
17488;SDS011;8861;52.644;4.734;2022-10-17T04:31:44;19.73;;;15.03;;
17488;SDS011;8861;52.644;4.734;2022-10-17T04:34:11;18.23;;;13.57;;
17488;SDS011;8861;52.644;4.734;2022-10-17T04:36:39;18.07;;;14.13;;
17488;SDS011;8861;52.644;4.734;2022-10-17T04:39:06;27.83;;;18.03;;
17488;SDS011;8861;52.644;4.734;2022-10-17T04:41:32;22.40;;;15.23;;
17488;SDS011;8861;52.644;4.734;2022-10-17T04:43:59;21.30;;;15.47;;
17488;SDS011;8861;52.644;4.734;2022-10-17T04:46:26;19.40;;;15.13;;
17488;SDS011;8861;52.644;4.734;2022-10-17T04:48:55;22.50;;;15.53;;
17488;SDS011;8861;52.644;4.734;2022-10-17T04:51:21;22.27;;;16.67;;
17488;SDS011;8861;52.644;4.734;2022-10-17T04:53:48;19.53;;;15.30;;
17488;SDS011;8861;52.644;4.734;2022-10-17T04:56:15;22.90;;;16.67;;
17488;SDS011;8861;52.644;4.734;2022-10-17T04:58:44;28.30;;;19.73;;
17488;SDS011;8861;52.644;4.734;2022-10-17T05:01:12;19.50;;;14.97;;
17488;SDS011;8861;52.644;4.734;2022-10-17T05:03:40;21.70;;;16.80;;
17488;SDS011;8861;52.644;4.734;2022-10-17T05:06:12;21.77;;;15.77;;
17488;SDS011;8861;52.644;4.734;2022-10-17T05:08:39;21.83;;;15.53;;
17488;SDS011;8861;52.644;4.734;2022-10-17T05:11:13;24.53;;;18.20;;
17488;SDS011;8861;52.644;4.734;2022-10-17T05:13:42;17.50;;;14.13;;
17488;SDS011;8861;52.644;4.734;2022-10-17T05:16:09;16.50;;;13.17;;
17488;SDS011;8861;52.644;4.734;2022-10-17T05:18:36;22.47;;;15.90;;
17488;SDS011;8861;52.644;4.734;2022-10-17T05:21:03;22.47;;;16.07;;
17488;SDS011;8861;52.644;4.734;2022-10-17T05:23:31;18.63;;;14.70;;
17488;SDS011;8861;52.644;4.734;2022-10-17T05:25:58;16.57;;;13.33;;
17488;SDS011;8861;52.644;4.734;2022-10-17T05:28:25;18.43;;;13.80;;
17488;SDS011;8861;52.644;4.734;2022-10-17T05:30:52;18.93;;;13.80;;
17488;SDS011;8861;52.644;4.734;2022-10-17T05:33:20;16.57;;;14.00;;
17488;SDS011;8861;52.644;4.734;2022-10-17T05:35:47;18.27;;;14.37;;
17488;SDS011;8861;52.644;4.734;2022-10-17T05:38:14;17.90;;;13.23;;
17488;SDS011;8861;52.644;4.734;2022-10-17T05:40:43;17.13;;;13.47;;
17488;SDS011;8861;52.644;4.734;2022-10-17T05:43:09;14.73;;;12.17;;
17488;SDS011;8861;52.644;4.734;2022-10-17T05:45:36;14.07;;;11.60;;
17488;SDS011;8861;52.644;4.734;2022-10-17T05:48:03;15.50;;;11.77;;
17488;SDS011;8861;52.644;4.734;2022-10-17T05:50:30;13.87;;;11.40;;
17488;SDS011;8861;52.644;4.734;2022-10-17T05:52:57;11.03;;;9.80;;
17488;SDS011;8861;52.644;4.734;2022-10-17T05:55:24;9.83;;;8.83;;
17488;SDS011;8861;52.644;4.734;2022-10-17T05:57:52;10.83;;;9.47;;
17488;SDS011;8861;52.644;4.734;2022-10-17T06:00:19;10.37;;;9.03;;
17488;SDS011;8861;52.644;4.734;2022-10-17T06:02:47;8.93;;;8.03;;
17488;SDS011;8861;52.644;4.734;2022-10-17T06:05:14;11.50;;;8.23;;
17488;SDS011;8861;52.644;4.734;2022-10-17T06:07:41;11.80;;;9.97;;
17488;SDS011;8861;52.644;4.734;2022-10-17T06:10:08;14.43;;;10.47;;
17488;SDS011;8861;52.644;4.734;2022-10-17T06:12:36;15.10;;;11.33;;
17488;SDS011;8861;52.644;4.734;2022-10-17T06:15:05;17.90;;;12.60;;
17488;SDS011;8861;52.644;4.734;2022-10-17T06:17:32;12.43;;;10.90;;
17488;SDS011;8861;52.644;4.734;2022-10-17T06:19:59;14.03;;;11.13;;
17488;SDS011;8861;52.644;4.734;2022-10-17T06:22:26;14.90;;;11.10;;
17488;SDS011;8861;52.644;4.734;2022-10-17T06:24:53;11.30;;;9.73;;
17488;SDS011;8861;52.644;4.734;2022-10-17T06:27:20;13.83;;;11.00;;
17488;SDS011;8861;52.644;4.734;2022-10-17T06:29:47;16.03;;;12.20;;
17488;SDS011;8861;52.644;4.734;2022-10-17T06:32:16;19.47;;;12.60;;
17488;SDS011;8861;52.644;4.734;2022-10-17T06:34:43;16.03;;;11.90;;
17488;SDS011;8861;52.644;4.734;2022-10-17T06:37:10;20.10;;;13.40;;
17488;SDS011;8861;52.644;4.734;2022-10-17T06:39:37;16.30;;;11.53;;
17488;SDS011;8861;52.644;4.734;2022-10-17T06:42:03;15.07;;;11.33;;
17488;SDS011;8861;52.644;4.734;2022-10-17T06:44:30;15.87;;;11.63;;
17488;SDS011;8861;52.644;4.734;2022-10-17T06:46:57;17.13;;;11.77;;
17488;SDS011;8861;52.644;4.734;2022-10-17T06:49:26;17.47;;;12.67;;
17488;SDS011;8861;52.644;4.734;2022-10-17T06:51:53;18.37;;;13.37;;
17488;SDS011;8861;52.644;4.734;2022-10-17T06:54:20;16.93;;;11.27;;
17488;SDS011;8861;52.644;4.734;2022-10-17T06:56:47;14.23;;;10.73;;
17488;SDS011;8861;52.644;4.734;2022-10-17T06:59:14;16.03;;;11.97;;
17488;SDS011;8861;52.644;4.734;2022-10-17T07:01:41;15.83;;;11.17;;
17488;SDS011;8861;52.644;4.734;2022-10-17T07:04:08;14.97;;;10.80;;
17488;SDS011;8861;52.644;4.734;2022-10-17T07:06:36;15.47;;;11.00;;
17488;SDS011;8861;52.644;4.734;2022-10-17T07:09:03;11.23;;;9.37;;
17488;SDS011;8861;52.644;4.734;2022-10-17T07:11:31;10.17;;;9.07;;
17488;SDS011;8861;52.644;4.734;2022-10-17T07:13:59;10.90;;;9.37;;
17488;SDS011;8861;52.644;4.734;2022-10-17T07:16:26;11.33;;;9.40;;
17488;SDS011;8861;52.644;4.734;2022-10-17T07:18:53;9.30;;;8.17;;
17488;SDS011;8861;52.644;4.734;2022-10-17T07:21:20;9.33;;;7.90;;
17488;SDS011;8861;52.644;4.734;2022-10-17T07:23:48;8.87;;;7.57;;
17488;SDS011;8861;52.644;4.734;2022-10-17T07:26:16;8.10;;;7.23;;
17488;SDS011;8861;52.644;4.734;2022-10-17T07:28:44;9.63;;;8.63;;
17488;SDS011;8861;52.644;4.734;2022-10-17T07:31:12;8.83;;;7.60;;
17488;SDS011;8861;52.644;4.734;2022-10-17T07:33:41;9.43;;;8.43;;
17488;SDS011;8861;52.644;4.734;2022-10-17T07:36:08;14.13;;;11.33;;
17488;SDS011;8861;52.644;4.734;2022-10-17T07:38:35;13.70;;;11.27;;
17488;SDS011;8861;52.644;4.734;2022-10-17T07:41:04;12.93;;;10.53;;
17488;SDS011;8861;52.644;4.734;2022-10-17T07:43:32;12.70;;;10.30;;
17488;SDS011;8861;52.644;4.734;2022-10-17T07:46:00;13.47;;;11.00;;
17488;SDS011;8861;52.644;4.734;2022-10-17T07:48:28;19.33;;;13.67;;
17488;SDS011;8861;52.644;4.734;2022-10-17T07:50:55;14.53;;;12.83;;
17488;SDS011;8861;52.644;4.734;2022-10-17T07:53:22;15.20;;;12.10;;
17488;SDS011;8861;52.644;4.734;2022-10-17T07:55:49;18.10;;;13.27;;
17488;SDS011;8861;52.644;4.734;2022-10-17T07:58:17;15.27;;;13.03;;
17488;SDS011;8861;52.644;4.734;2022-10-17T08:00:44;16.33;;;13.23;;
17488;SDS011;8861;52.644;4.734;2022-10-17T08:03:13;14.63;;;12.83;;
17488;SDS011;8861;52.644;4.734;2022-10-17T08:05:39;17.33;;;12.63;;
17488;SDS011;8861;52.644;4.734;2022-10-17T08:08:06;15.23;;;11.67;;
17488;SDS011;8861;52.644;4.734;2022-10-17T08:10:33;22.53;;;16.97;;
17488;SDS011;8861;52.644;4.734;2022-10-17T08:13:00;24.53;;;17.00;;
17488;SDS011;8861;52.644;4.734;2022-10-17T08:15:28;15.97;;;12.60;;
17488;SDS011;8861;52.644;4.734;2022-10-17T08:17:58;18.53;;;13.50;;
17488;SDS011;8861;52.644;4.734;2022-10-17T08:20:25;16.93;;;13.57;;
17488;SDS011;8861;52.644;4.734;2022-10-17T08:22:52;21.97;;;15.80;;
17488;SDS011;8861;52.644;4.734;2022-10-17T08:25:19;22.17;;;15.23;;
17488;SDS011;8861;52.644;4.734;2022-10-17T08:27:46;18.87;;;13.47;;
17488;SDS011;8861;52.644;4.734;2022-10-17T08:30:13;21.77;;;13.70;;
17488;SDS011;8861;52.644;4.734;2022-10-17T08:32:42;19.40;;;14.57;;
17488;SDS011;8861;52.644;4.734;2022-10-17T08:35:09;20.67;;;14.13;;
17488;SDS011;8861;52.644;4.734;2022-10-17T08:37:39;23.97;;;17.20;;
17488;SDS011;8861;52.644;4.734;2022-10-17T08:40:08;19.23;;;14.70;;
17488;SDS011;8861;52.644;4.734;2022-10-17T08:45:50;15.53;;;12.50;;
17488;SDS011;8861;52.644;4.734;2022-10-17T08:48:22;19.23;;;13.17;;
17488;SDS011;8861;52.644;4.734;2022-10-17T08:50:51;15.93;;;12.27;;
17488;SDS011;8861;52.644;4.734;2022-10-17T08:53:21;17.47;;;12.90;;
17488;SDS011;8861;52.644;4.734;2022-10-17T08:55:53;21.83;;;14.77;;
17488;SDS011;8861;52.644;4.734;2022-10-17T08:58:21;17.47;;;12.67;;
17488;SDS011;8861;52.644;4.734;2022-10-17T09:00:50;18.23;;;12.63;;
17488;SDS011;8861;52.644;4.734;2022-10-17T09:03:33;17.27;;;13.40;;
17488;SDS011;8861;52.644;4.734;2022-10-17T09:06:10;22.70;;;14.87;;
17488;SDS011;8861;52.644;4.734;2022-10-17T09:08:43;18.23;;;12.90;;
17488;SDS011;8861;52.644;4.734;2022-10-17T09:11:22;23.90;;;14.50;;
17488;SDS011;8861;52.644;4.734;2022-10-17T09:14:01;17.03;;;11.67;;
17488;SDS011;8861;52.644;4.734;2022-10-17T09:16:47;15.87;;;12.40;;
17488;SDS011;8861;52.644;4.734;2022-10-17T09:19:27;17.37;;;11.50;;
17488;SDS011;8861;52.644;4.734;2022-10-17T09:21:58;14.70;;;11.30;;
17488;SDS011;8861;52.644;4.734;2022-10-17T09:24:30;17.67;;;12.13;;
17488;SDS011;8861;52.644;4.734;2022-10-17T09:27:04;17.47;;;11.23;;
17488;SDS011;8861;52.644;4.734;2022-10-17T09:29:36;23.87;;;14.20;;
17488;SDS011;8861;52.644;4.734;2022-10-17T09:32:03;15.30;;;10.53;;
17488;SDS011;8861;52.644;4.734;2022-10-17T09:34:39;14.53;;;10.07;;
17488;SDS011;8861;52.644;4.734;2022-10-17T09:37:08;11.73;;;9.13;;
17488;SDS011;8861;52.644;4.734;2022-10-17T09:39:38;16.60;;;10.77;;
17488;SDS011;8861;52.644;4.734;2022-10-17T09:42:07;15.13;;;9.80;;
17488;SDS011;8861;52.644;4.734;2022-10-17T09:44:39;13.77;;;9.03;;
17488;SDS011;8861;52.644;4.734;2022-10-17T09:50:01;10.60;;;7.93;;
17488;SDS011;8861;52.644;4.734;2022-10-17T09:52:29;10.10;;;7.57;;
17488;SDS011;8861;52.644;4.734;2022-10-17T09:55:00;13.03;;;8.87;;
17488;SDS011;8861;52.644;4.734;2022-10-17T09:57:49;13.53;;;8.90;;
17488;SDS011;8861;52.644;4.734;2022-10-17T10:00:19;10.57;;;7.93;;
17488;SDS011;8861;52.644;4.734;2022-10-17T10:02:48;10.17;;;6.83;;
17488;SDS011;8861;52.644;4.734;2022-10-17T10:05:17;15.90;;;9.10;;
17488;SDS011;8861;52.644;4.734;2022-10-17T10:07:58;17.00;;;8.80;;
17488;SDS011;8861;52.644;4.734;2022-10-17T10:10:28;13.10;;;8.10;;
17488;SDS011;8861;52.644;4.734;2022-10-17T10:13:00;16.93;;;8.47;;
17488;SDS011;8861;52.644;4.734;2022-10-17T10:15:32;11.80;;;7.30;;
17488;SDS011;8861;52.644;4.734;2022-10-17T10:18:01;13.87;;;7.80;;
17488;SDS011;8861;52.644;4.734;2022-10-17T10:20:30;12.83;;;7.30;;
17488;SDS011;8861;52.644;4.734;2022-10-17T10:23:08;11.33;;;6.97;;
17488;SDS011;8861;52.644;4.734;2022-10-17T10:25:41;12.77;;;6.43;;
17488;SDS011;8861;52.644;4.734;2022-10-17T10:28:17;10.30;;;6.43;;
17488;SDS011;8861;52.644;4.734;2022-10-17T10:30:46;11.87;;;6.27;;
17488;SDS011;8861;52.644;4.734;2022-10-17T10:33:14;10.13;;;6.00;;
17488;SDS011;8861;52.644;4.734;2022-10-17T10:35:45;14.53;;;6.47;;
17488;SDS011;8861;52.644;4.734;2022-10-17T10:38:20;11.63;;;6.90;;
17488;SDS011;8861;52.644;4.734;2022-10-17T10:40:47;13.70;;;6.47;;
17488;SDS011;8861;52.644;4.734;2022-10-17T10:43:20;9.83;;;6.40;;
17488;SDS011;8861;52.644;4.734;2022-10-17T10:45:51;12.73;;;6.80;;
17488;SDS011;8861;52.644;4.734;2022-10-17T10:48:19;11.87;;;6.67;;
17488;SDS011;8861;52.644;4.734;2022-10-17T10:50:49;19.93;;;8.33;;
17488;SDS011;8861;52.644;4.734;2022-10-17T10:53:30;10.07;;;6.40;;
17488;SDS011;8861;52.644;4.734;2022-10-17T10:56:02;13.07;;;6.87;;
17488;SDS011;8861;52.644;4.734;2022-10-17T10:58:36;14.53;;;7.13;;
17488;SDS011;8861;52.644;4.734;2022-10-17T11:01:11;13.73;;;7.07;;
17488;SDS011;8861;52.644;4.734;2022-10-17T11:03:48;9.20;;;6.33;;
17488;SDS011;8861;52.644;4.734;2022-10-17T11:06:22;12.30;;;6.73;;
17488;SDS011;8861;52.644;4.734;2022-10-17T11:08:55;11.70;;;6.20;;
17488;SDS011;8861;52.644;4.734;2022-10-17T11:11:31;14.07;;;7.00;;
17488;SDS011;8861;52.644;4.734;2022-10-17T11:14:07;9.10;;;6.43;;
17488;SDS011;8861;52.644;4.734;2022-10-17T11:16:39;11.60;;;6.10;;
17488;SDS011;8861;52.644;4.734;2022-10-17T11:19:12;12.63;;;7.03;;
17488;SDS011;8861;52.644;4.734;2022-10-17T11:21:48;14.63;;;6.93;;
17488;SDS011;8861;52.644;4.734;2022-10-17T11:24:27;8.97;;;5.63;;
17488;SDS011;8861;52.644;4.734;2022-10-17T11:27:02;9.63;;;6.03;;
17488;SDS011;8861;52.644;4.734;2022-10-17T11:29:31;11.57;;;6.40;;
17488;SDS011;8861;52.644;4.734;2022-10-17T11:32:02;7.50;;;5.63;;
17488;SDS011;8861;52.644;4.734;2022-10-17T11:34:34;11.83;;;5.90;;
17488;SDS011;8861;52.644;4.734;2022-10-17T11:37:08;11.07;;;5.70;;
17488;SDS011;8861;52.644;4.734;2022-10-17T11:39:41;9.60;;;5.30;;
17488;SDS011;8861;52.644;4.734;2022-10-17T11:42:13;11.77;;;5.77;;
17488;SDS011;8861;52.644;4.734;2022-10-17T11:44:43;7.40;;;5.30;;
17488;SDS011;8861;52.644;4.734;2022-10-17T11:47:12;7.70;;;5.40;;
17488;SDS011;8861;52.644;4.734;2022-10-17T11:49:49;8.57;;;5.77;;
17488;SDS011;8861;52.644;4.734;2022-10-17T11:52:24;10.90;;;4.77;;
17488;SDS011;8861;52.644;4.734;2022-10-17T11:55:00;8.77;;;5.80;;
17488;SDS011;8861;52.644;4.734;2022-10-17T11:57:40;9.47;;;5.70;;
17488;SDS011;8861;52.644;4.734;2022-10-17T12:00:20;8.87;;;5.50;;
17488;SDS011;8861;52.644;4.734;2022-10-17T12:02:54;6.63;;;5.20;;
17488;SDS011;8861;52.644;4.734;2022-10-17T12:05:31;7.80;;;5.10;;
17488;SDS011;8861;52.644;4.734;2022-10-17T12:08:10;7.57;;;5.30;;
17488;SDS011;8861;52.644;4.734;2022-10-17T12:10:44;10.03;;;5.53;;
17488;SDS011;8861;52.644;4.734;2022-10-17T12:22:16;13.00;;;5.63;;
17488;SDS011;8861;52.644;4.734;2022-10-17T12:24:53;8.50;;;5.43;;
17488;SDS011;8861;52.644;4.734;2022-10-17T12:30:15;9.03;;;5.37;;
17488;SDS011;8861;52.644;4.734;2022-10-17T12:32:52;6.53;;;4.70;;
17488;SDS011;8861;52.644;4.734;2022-10-17T12:35:31;7.57;;;4.80;;
17488;SDS011;8861;52.644;4.734;2022-10-17T12:40:50;7.60;;;4.80;;
17488;SDS011;8861;52.644;4.734;2022-10-17T12:49:35;7.33;;;4.73;;
17488;SDS011;8861;52.644;4.734;2022-10-17T12:52:20;6.30;;;4.20;;
17488;SDS011;8861;52.644;4.734;2022-10-17T12:54:50;7.67;;;4.07;;
17488;SDS011;8861;52.644;4.734;2022-10-17T12:57:28;8.37;;;4.30;;
17488;SDS011;8861;52.644;4.734;2022-10-17T13:00:00;9.87;;;5.27;;
17488;SDS011;8861;52.644;4.734;2022-10-17T13:02:30;9.23;;;4.43;;
17488;SDS011;8861;52.644;4.734;2022-10-17T13:05:02;8.67;;;4.87;;
17488;SDS011;8861;52.644;4.734;2022-10-17T13:07:32;8.97;;;4.67;;
17488;SDS011;8861;52.644;4.734;2022-10-17T13:10:00;8.30;;;4.50;;
17488;SDS011;8861;52.644;4.734;2022-10-17T13:12:31;8.97;;;4.60;;
17488;SDS011;8861;52.644;4.734;2022-10-17T13:15:00;7.30;;;4.10;;
17488;SDS011;8861;52.644;4.734;2022-10-17T13:17:32;6.83;;;4.50;;
17488;SDS011;8861;52.644;4.734;2022-10-17T13:19:59;9.67;;;5.83;;
17488;SDS011;8861;52.644;4.734;2022-10-17T13:22:27;9.27;;;5.50;;
17488;SDS011;8861;52.644;4.734;2022-10-17T13:25:05;8.87;;;4.90;;
17488;SDS011;8861;52.644;4.734;2022-10-17T13:27:35;6.87;;;4.33;;
17488;SDS011;8861;52.644;4.734;2022-10-17T13:30:19;6.83;;;4.70;;
17488;SDS011;8861;52.644;4.734;2022-10-17T13:32:51;12.57;;;4.60;;
17488;SDS011;8861;52.644;4.734;2022-10-17T13:35:22;8.03;;;4.07;;
17488;SDS011;8861;52.644;4.734;2022-10-17T13:37:52;8.40;;;4.30;;
17488;SDS011;8861;52.644;4.734;2022-10-17T13:40:21;7.43;;;4.60;;
17488;SDS011;8861;52.644;4.734;2022-10-17T13:42:51;9.67;;;4.40;;
17488;SDS011;8861;52.644;4.734;2022-10-17T13:45:21;9.33;;;4.50;;
17488;SDS011;8861;52.644;4.734;2022-10-17T13:47:53;8.37;;;4.63;;
17488;SDS011;8861;52.644;4.734;2022-10-17T13:50:23;9.83;;;4.87;;
17488;SDS011;8861;52.644;4.734;2022-10-17T13:53:06;5.80;;;4.13;;
17488;SDS011;8861;52.644;4.734;2022-10-17T13:55:48;8.63;;;4.30;;
17488;SDS011;8861;52.644;4.734;2022-10-17T13:58:21;8.43;;;4.33;;
17488;SDS011;8861;52.644;4.734;2022-10-17T14:00:48;9.47;;;4.30;;
17488;SDS011;8861;52.644;4.734;2022-10-17T14:03:17;6.70;;;3.90;;
17488;SDS011;8861;52.644;4.734;2022-10-17T14:06:05;9.97;;;4.20;;
17488;SDS011;8861;52.644;4.734;2022-10-17T14:08:38;9.97;;;4.20;;
17488;SDS011;8861;52.644;4.734;2022-10-17T14:11:14;6.10;;;3.77;;
17488;SDS011;8861;52.644;4.734;2022-10-17T14:13:48;8.90;;;4.27;;
17488;SDS011;8861;52.644;4.734;2022-10-17T14:16:17;6.97;;;4.50;;
17488;SDS011;8861;52.644;4.734;2022-10-17T14:18:45;12.70;;;4.50;;
17488;SDS011;8861;52.644;4.734;2022-10-17T14:21:17;6.90;;;3.97;;
17488;SDS011;8861;52.644;4.734;2022-10-17T14:23:45;9.77;;;4.33;;
17488;SDS011;8861;52.644;4.734;2022-10-17T14:26:13;8.77;;;3.73;;
17488;SDS011;8861;52.644;4.734;2022-10-17T14:28:42;8.97;;;4.10;;
17488;SDS011;8861;52.644;4.734;2022-10-17T14:31:19;9.60;;;4.50;;
17488;SDS011;8861;52.644;4.734;2022-10-17T14:33:52;8.30;;;3.90;;
17488;SDS011;8861;52.644;4.734;2022-10-17T14:36:20;9.47;;;3.90;;
17488;SDS011;8861;52.644;4.734;2022-10-17T14:38:56;10.37;;;4.03;;
17488;SDS011;8861;52.644;4.734;2022-10-17T14:41:24;7.87;;;3.43;;
17488;SDS011;8861;52.644;4.734;2022-10-17T14:43:53;9.23;;;3.90;;
17488;SDS011;8861;52.644;4.734;2022-10-17T14:46:24;7.93;;;3.37;;
17488;SDS011;8861;52.644;4.734;2022-10-17T14:48:52;11.07;;;3.97;;
17488;SDS011;8861;52.644;4.734;2022-10-17T14:51:21;8.73;;;3.70;;
17488;SDS011;8861;52.644;4.734;2022-10-17T14:53:58;9.33;;;3.80;;
17488;SDS011;8861;52.644;4.734;2022-10-17T14:56:32;7.47;;;3.83;;
17488;SDS011;8861;52.644;4.734;2022-10-17T14:59:01;7.43;;;3.60;;
17488;SDS011;8861;52.644;4.734;2022-10-17T15:01:31;7.10;;;3.57;;
17488;SDS011;8861;52.644;4.734;2022-10-17T15:03:58;7.77;;;4.13;;
17488;SDS011;8861;52.644;4.734;2022-10-17T15:06:26;8.60;;;4.00;;
17488;SDS011;8861;52.644;4.734;2022-10-17T15:08:54;5.80;;;3.37;;
17488;SDS011;8861;52.644;4.734;2022-10-17T15:11:21;7.47;;;3.57;;
17488;SDS011;8861;52.644;4.734;2022-10-17T15:13:48;10.07;;;4.20;;
17488;SDS011;8861;52.644;4.734;2022-10-17T15:16:17;9.53;;;3.60;;
17488;SDS011;8861;52.644;4.734;2022-10-17T15:18:46;12.03;;;4.40;;
17488;SDS011;8861;52.644;4.734;2022-10-17T15:21:14;14.00;;;4.40;;
17488;SDS011;8861;52.644;4.734;2022-10-17T15:23:42;9.77;;;4.00;;
17488;SDS011;8861;52.644;4.734;2022-10-17T15:26:11;7.37;;;3.83;;
17488;SDS011;8861;52.644;4.734;2022-10-17T15:28:39;8.73;;;4.13;;
17488;SDS011;8861;52.644;4.734;2022-10-17T15:31:08;7.97;;;3.87;;
17488;SDS011;8861;52.644;4.734;2022-10-17T15:33:39;9.30;;;4.20;;
17488;SDS011;8861;52.644;4.734;2022-10-17T15:36:17;7.20;;;3.80;;